sensor_id;sensor_type;location;lat;lon;timestamp;P1;durP1;ratioP1;P2;durP2;ratioP2
5042;SDS011;2540;50.928;6.856;2023-07-16T00:02:17;5.13;;;1.90;;
5042;SDS011;2540;50.928;6.856;2023-07-16T00:04:42;4.47;;;1.90;;
5042;SDS011;2540;50.928;6.856;2023-07-16T00:07:08;7.23;;;2.00;;
5042;SDS011;2540;50.928;6.856;2023-07-16T00:09:35;3.50;;;1.80;;
5042;SDS011;2540;50.928;6.856;2023-07-16T00:12:00;5.70;;;2.70;;
5042;SDS011;2540;50.928;6.856;2023-07-16T00:14:26;9.60;;;2.30;;
5042;SDS011;2540;50.928;6.856;2023-07-16T00:16:51;4.00;;;1.97;;
5042;SDS011;2540;50.928;6.856;2023-07-16T00:19:16;3.27;;;2.00;;
5042;SDS011;2540;50.928;6.856;2023-07-16T00:21:42;2.80;;;1.90;;
5042;SDS011;2540;50.928;6.856;2023-07-16T00:24:07;3.80;;;1.60;;
5042;SDS011;2540;50.928;6.856;2023-07-16T00:26:32;3.50;;;1.80;;
5042;SDS011;2540;50.928;6.856;2023-07-16T00:28:58;4.83;;;2.10;;
5042;SDS011;2540;50.928;6.856;2023-07-16T00:31:23;5.47;;;2.10;;
5042;SDS011;2540;50.928;6.856;2023-07-16T00:33:48;11.37;;;2.50;;
5042;SDS011;2540;50.928;6.856;2023-07-16T00:36:14;10.57;;;2.40;;
5042;SDS011;2540;50.928;6.856;2023-07-16T00:38:39;4.20;;;1.60;;
5042;SDS011;2540;50.928;6.856;2023-07-16T00:41:07;5.73;;;2.17;;
5042;SDS011;2540;50.928;6.856;2023-07-16T00:43:33;5.40;;;2.43;;
5042;SDS011;2540;50.928;6.856;2023-07-16T00:45:58;9.13;;;2.40;;
5042;SDS011;2540;50.928;6.856;2023-07-16T00:48:24;6.10;;;2.67;;
5042;SDS011;2540;50.928;6.856;2023-07-16T00:50:50;5.50;;;1.77;;
5042;SDS011;2540;50.928;6.856;2023-07-16T00:53:16;13.13;;;1.90;;
5042;SDS011;2540;50.928;6.856;2023-07-16T00:55:41;3.60;;;1.80;;
5042;SDS011;2540;50.928;6.856;2023-07-16T00:58:07;5.00;;;1.80;;
5042;SDS011;2540;50.928;6.856;2023-07-16T01:00:33;2.80;;;1.90;;
5042;SDS011;2540;50.928;6.856;2023-07-16T01:03:00;5.60;;;2.10;;
5042;SDS011;2540;50.928;6.856;2023-07-16T01:05:28;4.03;;;2.13;;
5042;SDS011;2540;50.928;6.856;2023-07-16T01:07:59;2.60;;;1.93;;
5042;SDS011;2540;50.928;6.856;2023-07-16T01:10:27;5.83;;;2.00;;
5042;SDS011;2540;50.928;6.856;2023-07-16T01:12:54;8.63;;;2.00;;
5042;SDS011;2540;50.928;6.856;2023-07-16T01:15:20;3.97;;;1.60;;
5042;SDS011;2540;50.928;6.856;2023-07-16T01:17:45;3.53;;;1.80;;
5042;SDS011;2540;50.928;6.856;2023-07-16T01:20:11;7.73;;;1.90;;
5042;SDS011;2540;50.928;6.856;2023-07-16T01:22:52;3.73;;;2.00;;
5042;SDS011;2540;50.928;6.856;2023-07-16T01:31:12;2.07;;;1.53;;
5042;SDS011;2540;50.928;6.856;2023-07-16T01:33:38;4.20;;;1.73;;
5042;SDS011;2540;50.928;6.856;2023-07-16T01:36:06;6.60;;;2.00;;
5042;SDS011;2540;50.928;6.856;2023-07-16T01:38:32;3.00;;;1.60;;
5042;SDS011;2540;50.928;6.856;2023-07-16T01:40:58;4.33;;;1.30;;
5042;SDS011;2540;50.928;6.856;2023-07-16T01:43:23;6.50;;;1.63;;
5042;SDS011;2540;50.928;6.856;2023-07-16T01:45:49;3.53;;;1.53;;
5042;SDS011;2540;50.928;6.856;2023-07-16T01:50:40;5.53;;;1.97;;
5042;SDS011;2540;50.928;6.856;2023-07-16T01:53:05;6.77;;;1.70;;
5042;SDS011;2540;50.928;6.856;2023-07-16T01:55:31;9.27;;;2.43;;
5042;SDS011;2540;50.928;6.856;2023-07-16T01:57:56;2.57;;;2.03;;
5042;SDS011;2540;50.928;6.856;2023-07-16T02:00:21;12.60;;;2.77;;
5042;SDS011;2540;50.928;6.856;2023-07-16T02:02:47;2.93;;;1.87;;
5042;SDS011;2540;50.928;6.856;2023-07-16T02:05:12;4.23;;;1.97;;
5042;SDS011;2540;50.928;6.856;2023-07-16T02:07:37;1.40;;;1.30;;
5042;SDS011;2540;50.928;6.856;2023-07-16T02:10:03;4.73;;;1.80;;
5042;SDS011;2540;50.928;6.856;2023-07-16T02:12:28;5.93;;;2.10;;
5042;SDS011;2540;50.928;6.856;2023-07-16T02:14:54;4.30;;;1.80;;
5042;SDS011;2540;50.928;6.856;2023-07-16T02:17:19;3.77;;;1.80;;
5042;SDS011;2540;50.928;6.856;2023-07-16T02:19:44;7.00;;;1.47;;
5042;SDS011;2540;50.928;6.856;2023-07-16T02:22:10;3.03;;;2.30;;
5042;SDS011;2540;50.928;6.856;2023-07-16T02:24:35;5.17;;;1.83;;
5042;SDS011;2540;50.928;6.856;2023-07-16T02:27:00;3.60;;;1.40;;
5042;SDS011;2540;50.928;6.856;2023-07-16T02:29:26;4.03;;;1.50;;
5042;SDS011;2540;50.928;6.856;2023-07-16T02:31:51;5.60;;;1.83;;
5042;SDS011;2540;50.928;6.856;2023-07-16T02:34:17;4.47;;;1.70;;
5042;SDS011;2540;50.928;6.856;2023-07-16T02:36:42;3.13;;;1.90;;
5042;SDS011;2540;50.928;6.856;2023-07-16T02:39:08;4.83;;;1.73;;
5042;SDS011;2540;50.928;6.856;2023-07-16T02:41:33;3.00;;;2.27;;
5042;SDS011;2540;50.928;6.856;2023-07-16T02:43:59;4.47;;;1.90;;
5042;SDS011;2540;50.928;6.856;2023-07-16T02:46:25;5.20;;;1.63;;
5042;SDS011;2540;50.928;6.856;2023-07-16T02:48:51;20.33;;;1.70;;
5042;SDS011;2540;50.928;6.856;2023-07-16T02:51:16;3.73;;;1.50;;
5042;SDS011;2540;50.928;6.856;2023-07-16T02:53:41;3.30;;;1.50;;
5042;SDS011;2540;50.928;6.856;2023-07-16T02:56:07;5.60;;;1.83;;
5042;SDS011;2540;50.928;6.856;2023-07-16T02:58:32;4.10;;;1.63;;
5042;SDS011;2540;50.928;6.856;2023-07-16T03:00:57;4.50;;;2.00;;
5042;SDS011;2540;50.928;6.856;2023-07-16T03:03:22;8.93;;;1.90;;
5042;SDS011;2540;50.928;6.856;2023-07-16T03:05:48;5.03;;;1.50;;
5042;SDS011;2540;50.928;6.856;2023-07-16T03:08:13;3.43;;;1.37;;
5042;SDS011;2540;50.928;6.856;2023-07-16T03:10:38;4.20;;;2.13;;
5042;SDS011;2540;50.928;6.856;2023-07-16T03:13:04;3.53;;;1.70;;
5042;SDS011;2540;50.928;6.856;2023-07-16T03:15:29;11.30;;;1.83;;
5042;SDS011;2540;50.928;6.856;2023-07-16T03:17:54;3.80;;;1.70;;
5042;SDS011;2540;50.928;6.856;2023-07-16T03:20:20;6.07;;;1.90;;
5042;SDS011;2540;50.928;6.856;2023-07-16T03:22:45;10.43;;;1.60;;
5042;SDS011;2540;50.928;6.856;2023-07-16T03:25:10;6.63;;;2.20;;
5042;SDS011;2540;50.928;6.856;2023-07-16T03:27:36;6.60;;;1.63;;
5042;SDS011;2540;50.928;6.856;2023-07-16T03:30:01;8.03;;;1.73;;
5042;SDS011;2540;50.928;6.856;2023-07-16T03:32:27;2.23;;;1.70;;
5042;SDS011;2540;50.928;6.856;2023-07-16T03:34:53;6.77;;;1.63;;
5042;SDS011;2540;50.928;6.856;2023-07-16T03:37:18;3.37;;;1.40;;
5042;SDS011;2540;50.928;6.856;2023-07-16T03:39:43;6.40;;;1.90;;
5042;SDS011;2540;50.928;6.856;2023-07-16T03:42:09;4.87;;;1.67;;
5042;SDS011;2540;50.928;6.856;2023-07-16T03:44:34;3.40;;;1.50;;
5042;SDS011;2540;50.928;6.856;2023-07-16T03:46:59;4.10;;;1.47;;
5042;SDS011;2540;50.928;6.856;2023-07-16T03:49:25;8.03;;;1.80;;
5042;SDS011;2540;50.928;6.856;2023-07-16T03:51:50;5.63;;;2.17;;
5042;SDS011;2540;50.928;6.856;2023-07-16T03:54:15;4.13;;;1.70;;
5042;SDS011;2540;50.928;6.856;2023-07-16T03:56:40;5.57;;;1.80;;
5042;SDS011;2540;50.928;6.856;2023-07-16T03:59:06;4.33;;;1.80;;
5042;SDS011;2540;50.928;6.856;2023-07-16T04:01:31;3.20;;;1.60;;
5042;SDS011;2540;50.928;6.856;2023-07-16T04:03:56;4.13;;;1.97;;
5042;SDS011;2540;50.928;6.856;2023-07-16T04:06:22;2.60;;;1.47;;
5042;SDS011;2540;50.928;6.856;2023-07-16T04:08:47;1.90;;;1.63;;
5042;SDS011;2540;50.928;6.856;2023-07-16T04:11:12;3.53;;;1.50;;
5042;SDS011;2540;50.928;6.856;2023-07-16T04:13:38;11.03;;;1.90;;
5042;SDS011;2540;50.928;6.856;2023-07-16T04:16:03;3.07;;;2.10;;
5042;SDS011;2540;50.928;6.856;2023-07-16T04:18:29;2.40;;;1.70;;
5042;SDS011;2540;50.928;6.856;2023-07-16T04:20:54;4.73;;;1.70;;
5042;SDS011;2540;50.928;6.856;2023-07-16T04:23:19;8.77;;;3.00;;
5042;SDS011;2540;50.928;6.856;2023-07-16T04:25:45;4.77;;;1.83;;
5042;SDS011;2540;50.928;6.856;2023-07-16T04:28:10;7.60;;;2.67;;
5042;SDS011;2540;50.928;6.856;2023-07-16T04:30:36;4.50;;;1.63;;
5042;SDS011;2540;50.928;6.856;2023-07-16T04:33:02;8.33;;;2.53;;
5042;SDS011;2540;50.928;6.856;2023-07-16T04:35:28;6.67;;;2.00;;
5042;SDS011;2540;50.928;6.856;2023-07-16T04:37:53;8.10;;;2.40;;
5042;SDS011;2540;50.928;6.856;2023-07-16T04:40:18;3.17;;;1.90;;
5042;SDS011;2540;50.928;6.856;2023-07-16T04:42:45;6.40;;;2.20;;
5042;SDS011;2540;50.928;6.856;2023-07-16T04:45:10;4.70;;;2.30;;
5042;SDS011;2540;50.928;6.856;2023-07-16T04:47:35;5.13;;;2.27;;
5042;SDS011;2540;50.928;6.856;2023-07-16T04:50:00;5.73;;;2.13;;
5042;SDS011;2540;50.928;6.856;2023-07-16T04:52:26;7.00;;;2.20;;
5042;SDS011;2540;50.928;6.856;2023-07-16T04:54:51;7.13;;;2.20;;
5042;SDS011;2540;50.928;6.856;2023-07-16T04:57:17;7.03;;;2.07;;
5042;SDS011;2540;50.928;6.856;2023-07-16T04:59:42;6.53;;;2.00;;
5042;SDS011;2540;50.928;6.856;2023-07-16T05:02:07;7.63;;;2.30;;
5042;SDS011;2540;50.928;6.856;2023-07-16T05:04:33;4.90;;;2.10;;
5042;SDS011;2540;50.928;6.856;2023-07-16T05:07:00;12.53;;;2.20;;
5042;SDS011;2540;50.928;6.856;2023-07-16T05:09:26;6.40;;;2.40;;
5042;SDS011;2540;50.928;6.856;2023-07-16T05:11:52;5.03;;;2.60;;
5042;SDS011;2540;50.928;6.856;2023-07-16T05:14:17;4.57;;;2.20;;
5042;SDS011;2540;50.928;6.856;2023-07-16T05:16:42;4.20;;;1.93;;
5042;SDS011;2540;50.928;6.856;2023-07-16T05:19:08;4.77;;;2.33;;
5042;SDS011;2540;50.928;6.856;2023-07-16T05:21:33;5.20;;;1.90;;
5042;SDS011;2540;50.928;6.856;2023-07-16T05:23:58;7.67;;;2.50;;
5042;SDS011;2540;50.928;6.856;2023-07-16T05:26:23;7.03;;;2.53;;
5042;SDS011;2540;50.928;6.856;2023-07-16T05:28:49;5.53;;;2.40;;
5042;SDS011;2540;50.928;6.856;2023-07-16T05:31:14;5.47;;;2.20;;
5042;SDS011;2540;50.928;6.856;2023-07-16T05:33:39;7.73;;;2.40;;
5042;SDS011;2540;50.928;6.856;2023-07-16T05:36:05;6.40;;;2.53;;
5042;SDS011;2540;50.928;6.856;2023-07-16T05:38:30;7.53;;;2.60;;
5042;SDS011;2540;50.928;6.856;2023-07-16T05:41:02;5.87;;;2.63;;
5042;SDS011;2540;50.928;6.856;2023-07-16T05:43:28;6.10;;;2.30;;
5042;SDS011;2540;50.928;6.856;2023-07-16T05:45:53;5.67;;;2.83;;
5042;SDS011;2540;50.928;6.856;2023-07-16T05:48:19;11.83;;;3.00;;
5042;SDS011;2540;50.928;6.856;2023-07-16T05:50:44;3.83;;;2.27;;
5042;SDS011;2540;50.928;6.856;2023-07-16T05:53:10;6.67;;;2.27;;
5042;SDS011;2540;50.928;6.856;2023-07-16T05:55:35;11.17;;;3.20;;
5042;SDS011;2540;50.928;6.856;2023-07-16T05:58:01;5.87;;;2.50;;
5042;SDS011;2540;50.928;6.856;2023-07-16T06:00:26;7.90;;;2.80;;
5042;SDS011;2540;50.928;6.856;2023-07-16T06:02:51;10.50;;;3.30;;
5042;SDS011;2540;50.928;6.856;2023-07-16T06:05:17;10.60;;;3.73;;
5042;SDS011;2540;50.928;6.856;2023-07-16T06:07:42;8.80;;;3.40;;
5042;SDS011;2540;50.928;6.856;2023-07-16T06:10:08;6.20;;;3.17;;
5042;SDS011;2540;50.928;6.856;2023-07-16T06:12:34;7.70;;;3.17;;
5042;SDS011;2540;50.928;6.856;2023-07-16T06:14:59;9.93;;;4.50;;
5042;SDS011;2540;50.928;6.856;2023-07-16T06:17:25;15.07;;;3.70;;
5042;SDS011;2540;50.928;6.856;2023-07-16T06:19:50;12.50;;;3.10;;
5042;SDS011;2540;50.928;6.856;2023-07-16T06:22:16;8.60;;;3.60;;
5042;SDS011;2540;50.928;6.856;2023-07-16T06:24:42;10.67;;;3.47;;
5042;SDS011;2540;50.928;6.856;2023-07-16T06:27:07;12.77;;;3.60;;
5042;SDS011;2540;50.928;6.856;2023-07-16T06:29:32;6.57;;;3.10;;
5042;SDS011;2540;50.928;6.856;2023-07-16T06:31:58;8.63;;;3.63;;
5042;SDS011;2540;50.928;6.856;2023-07-16T06:34:24;8.33;;;3.27;;
5042;SDS011;2540;50.928;6.856;2023-07-16T06:36:50;11.37;;;3.10;;
5042;SDS011;2540;50.928;6.856;2023-07-16T06:39:15;7.50;;;3.80;;
5042;SDS011;2540;50.928;6.856;2023-07-16T06:41:40;6.03;;;3.40;;
5042;SDS011;2540;50.928;6.856;2023-07-16T06:44:06;9.63;;;4.63;;
5042;SDS011;2540;50.928;6.856;2023-07-16T06:46:31;10.60;;;4.20;;
5042;SDS011;2540;50.928;6.856;2023-07-16T06:48:56;6.33;;;3.77;;
5042;SDS011;2540;50.928;6.856;2023-07-16T06:51:22;12.43;;;3.70;;
5042;SDS011;2540;50.928;6.856;2023-07-16T06:53:47;5.00;;;3.93;;
5042;SDS011;2540;50.928;6.856;2023-07-16T06:56:13;11.40;;;4.50;;
5042;SDS011;2540;50.928;6.856;2023-07-16T06:58:38;8.13;;;3.90;;
5042;SDS011;2540;50.928;6.856;2023-07-16T07:01:03;7.20;;;3.50;;
5042;SDS011;2540;50.928;6.856;2023-07-16T07:03:29;6.70;;;3.30;;
5042;SDS011;2540;50.928;6.856;2023-07-16T07:05:54;4.60;;;3.23;;
5042;SDS011;2540;50.928;6.856;2023-07-16T07:08:19;4.57;;;3.20;;
5042;SDS011;2540;50.928;6.856;2023-07-16T07:10:46;8.83;;;4.23;;
5042;SDS011;2540;50.928;6.856;2023-07-16T07:13:13;9.17;;;3.60;;
5042;SDS011;2540;50.928;6.856;2023-07-16T07:15:38;7.13;;;3.80;;
5042;SDS011;2540;50.928;6.856;2023-07-16T07:18:04;9.77;;;4.37;;
5042;SDS011;2540;50.928;6.856;2023-07-16T07:20:29;8.40;;;4.00;;
5042;SDS011;2540;50.928;6.856;2023-07-16T07:22:54;11.47;;;3.67;;
5042;SDS011;2540;50.928;6.856;2023-07-16T07:25:20;10.73;;;3.80;;
5042;SDS011;2540;50.928;6.856;2023-07-16T07:27:45;10.97;;;3.30;;
5042;SDS011;2540;50.928;6.856;2023-07-16T07:30:10;15.23;;;3.70;;
5042;SDS011;2540;50.928;6.856;2023-07-16T07:32:36;8.50;;;3.40;;
5042;SDS011;2540;50.928;6.856;2023-07-16T07:35:02;6.47;;;3.50;;
5042;SDS011;2540;50.928;6.856;2023-07-16T07:37:27;6.57;;;3.63;;
5042;SDS011;2540;50.928;6.856;2023-07-16T07:39:53;9.33;;;3.73;;
5042;SDS011;2540;50.928;6.856;2023-07-16T07:42:18;6.80;;;3.43;;
5042;SDS011;2540;50.928;6.856;2023-07-16T07:44:44;13.10;;;3.80;;
5042;SDS011;2540;50.928;6.856;2023-07-16T07:47:09;5.73;;;3.50;;
5042;SDS011;2540;50.928;6.856;2023-07-16T07:49:34;8.03;;;3.90;;
5042;SDS011;2540;50.928;6.856;2023-07-16T07:52:00;13.40;;;3.73;;
5042;SDS011;2540;50.928;6.856;2023-07-16T07:54:25;9.80;;;4.37;;
5042;SDS011;2540;50.928;6.856;2023-07-16T07:56:50;11.50;;;4.60;;
5042;SDS011;2540;50.928;6.856;2023-07-16T07:59:16;9.07;;;4.30;;
5042;SDS011;2540;50.928;6.856;2023-07-16T08:01:41;8.57;;;4.43;;
5042;SDS011;2540;50.928;6.856;2023-07-16T08:04:07;6.53;;;3.73;;
5042;SDS011;2540;50.928;6.856;2023-07-16T08:06:32;7.67;;;3.63;;
5042;SDS011;2540;50.928;6.856;2023-07-16T08:08:57;7.43;;;3.90;;
5042;SDS011;2540;50.928;6.856;2023-07-16T08:11:23;7.40;;;3.70;;
5042;SDS011;2540;50.928;6.856;2023-07-16T08:13:48;9.90;;;4.40;;
5042;SDS011;2540;50.928;6.856;2023-07-16T08:16:14;13.60;;;4.40;;
5042;SDS011;2540;50.928;6.856;2023-07-16T08:18:39;7.43;;;3.70;;
5042;SDS011;2540;50.928;6.856;2023-07-16T08:21:05;6.80;;;4.23;;
5042;SDS011;2540;50.928;6.856;2023-07-16T08:23:30;8.40;;;3.40;;
5042;SDS011;2540;50.928;6.856;2023-07-16T08:25:55;8.70;;;4.00;;
5042;SDS011;2540;50.928;6.856;2023-07-16T08:28:20;6.73;;;3.67;;
5042;SDS011;2540;50.928;6.856;2023-07-16T08:30:46;7.03;;;3.73;;
5042;SDS011;2540;50.928;6.856;2023-07-16T08:33:13;5.93;;;4.03;;
5042;SDS011;2540;50.928;6.856;2023-07-16T08:35:39;7.00;;;3.93;;
5042;SDS011;2540;50.928;6.856;2023-07-16T08:38:05;7.70;;;3.30;;
5042;SDS011;2540;50.928;6.856;2023-07-16T08:40:34;7.50;;;3.27;;
5042;SDS011;2540;50.928;6.856;2023-07-16T08:43:00;6.23;;;3.10;;
5042;SDS011;2540;50.928;6.856;2023-07-16T08:45:25;6.97;;;3.40;;
5042;SDS011;2540;50.928;6.856;2023-07-16T08:47:53;8.40;;;4.27;;
5042;SDS011;2540;50.928;6.856;2023-07-16T08:50:19;8.70;;;3.57;;
5042;SDS011;2540;50.928;6.856;2023-07-16T08:52:46;7.77;;;2.90;;
5042;SDS011;2540;50.928;6.856;2023-07-16T08:55:12;9.73;;;3.80;;
5042;SDS011;2540;50.928;6.856;2023-07-16T08:57:37;5.00;;;3.00;;
5042;SDS011;2540;50.928;6.856;2023-07-16T09:00:03;5.83;;;3.70;;
5042;SDS011;2540;50.928;6.856;2023-07-16T09:02:30;5.20;;;3.30;;
5042;SDS011;2540;50.928;6.856;2023-07-16T09:04:55;5.70;;;3.30;;
5042;SDS011;2540;50.928;6.856;2023-07-16T09:07:21;8.70;;;3.03;;
5042;SDS011;2540;50.928;6.856;2023-07-16T09:09:56;9.97;;;3.30;;
5042;SDS011;2540;50.928;6.856;2023-07-16T09:12:26;7.17;;;3.00;;
5042;SDS011;2540;50.928;6.856;2023-07-16T09:14:51;6.40;;;3.27;;
5042;SDS011;2540;50.928;6.856;2023-07-16T09:17:23;8.33;;;2.70;;
5042;SDS011;2540;50.928;6.856;2023-07-16T09:19:52;10.50;;;3.03;;
5042;SDS011;2540;50.928;6.856;2023-07-16T09:22:18;7.50;;;2.80;;
5042;SDS011;2540;50.928;6.856;2023-07-16T09:24:44;6.10;;;3.10;;
5042;SDS011;2540;50.928;6.856;2023-07-16T09:27:11;8.97;;;2.97;;
5042;SDS011;2540;50.928;6.856;2023-07-16T09:29:37;6.13;;;3.30;;
5042;SDS011;2540;50.928;6.856;2023-07-16T09:32:03;7.17;;;2.70;;
5042;SDS011;2540;50.928;6.856;2023-07-16T09:34:30;5.23;;;2.80;;
5042;SDS011;2540;50.928;6.856;2023-07-16T09:36:56;7.93;;;3.57;;
5042;SDS011;2540;50.928;6.856;2023-07-16T09:39:25;9.27;;;3.20;;
5042;SDS011;2540;50.928;6.856;2023-07-16T09:41:51;6.77;;;2.90;;
5042;SDS011;2540;50.928;6.856;2023-07-16T09:44:16;7.10;;;2.70;;
5042;SDS011;2540;50.928;6.856;2023-07-16T09:46:42;4.17;;;2.50;;
5042;SDS011;2540;50.928;6.856;2023-07-16T09:49:09;5.47;;;2.40;;
5042;SDS011;2540;50.928;6.856;2023-07-16T09:51:38;7.10;;;2.87;;
5042;SDS011;2540;50.928;6.856;2023-07-16T09:54:04;6.73;;;3.03;;
5042;SDS011;2540;50.928;6.856;2023-07-16T09:56:34;7.20;;;3.03;;
5042;SDS011;2540;50.928;6.856;2023-07-16T09:59:02;4.30;;;2.70;;
5042;SDS011;2540;50.928;6.856;2023-07-16T10:01:31;6.80;;;2.83;;
5042;SDS011;2540;50.928;6.856;2023-07-16T10:03:56;4.33;;;2.63;;
5042;SDS011;2540;50.928;6.856;2023-07-16T10:06:21;4.97;;;2.90;;
5042;SDS011;2540;50.928;6.856;2023-07-16T10:08:50;7.10;;;2.50;;
5042;SDS011;2540;50.928;6.856;2023-07-16T10:11:16;7.73;;;2.83;;
5042;SDS011;2540;50.928;6.856;2023-07-16T10:13:42;5.50;;;3.03;;
5042;SDS011;2540;50.928;6.856;2023-07-16T10:16:08;5.37;;;2.53;;
5042;SDS011;2540;50.928;6.856;2023-07-16T10:18:36;4.57;;;2.40;;
5042;SDS011;2540;50.928;6.856;2023-07-16T10:21:08;10.07;;;2.80;;
5042;SDS011;2540;50.928;6.856;2023-07-16T10:23:40;4.13;;;2.53;;
5042;SDS011;2540;50.928;6.856;2023-07-16T10:26:07;5.00;;;2.53;;
5042;SDS011;2540;50.928;6.856;2023-07-16T10:28:36;6.50;;;3.10;;
5042;SDS011;2540;50.928;6.856;2023-07-16T10:31:02;5.37;;;2.47;;
5042;SDS011;2540;50.928;6.856;2023-07-16T10:33:27;5.93;;;2.37;;
5042;SDS011;2540;50.928;6.856;2023-07-16T10:35:53;4.20;;;2.27;;
5042;SDS011;2540;50.928;6.856;2023-07-16T10:38:21;5.63;;;2.90;;
5042;SDS011;2540;50.928;6.856;2023-07-16T10:40:47;3.40;;;2.60;;
5042;SDS011;2540;50.928;6.856;2023-07-16T10:43:12;6.83;;;2.70;;
5042;SDS011;2540;50.928;6.856;2023-07-16T10:45:37;4.83;;;2.50;;
5042;SDS011;2540;50.928;6.856;2023-07-16T10:48:03;4.63;;;2.90;;
5042;SDS011;2540;50.928;6.856;2023-07-16T10:50:31;4.70;;;3.10;;
5042;SDS011;2540;50.928;6.856;2023-07-16T10:52:57;8.80;;;3.83;;
5042;SDS011;2540;50.928;6.856;2023-07-16T10:55:22;6.00;;;3.20;;
5042;SDS011;2540;50.928;6.856;2023-07-16T10:57:49;4.03;;;2.03;;
5042;SDS011;2540;50.928;6.856;2023-07-16T11:00:15;5.93;;;2.60;;
5042;SDS011;2540;50.928;6.856;2023-07-16T11:02:41;5.70;;;3.30;;
5042;SDS011;2540;50.928;6.856;2023-07-16T11:05:11;3.40;;;2.23;;
5042;SDS011;2540;50.928;6.856;2023-07-16T11:07:44;5.03;;;2.50;;
5042;SDS011;2540;50.928;6.856;2023-07-16T11:10:10;4.30;;;3.43;;
5042;SDS011;2540;50.928;6.856;2023-07-16T11:12:35;5.30;;;2.80;;
5042;SDS011;2540;50.928;6.856;2023-07-16T11:15:01;5.33;;;2.90;;
5042;SDS011;2540;50.928;6.856;2023-07-16T11:17:26;6.97;;;2.70;;
5042;SDS011;2540;50.928;6.856;2023-07-16T11:19:53;4.50;;;2.57;;
5042;SDS011;2540;50.928;6.856;2023-07-16T11:22:19;5.67;;;2.17;;
5042;SDS011;2540;50.928;6.856;2023-07-16T11:24:49;5.67;;;2.30;;
5042;SDS011;2540;50.928;6.856;2023-07-16T11:32:38;5.33;;;2.63;;
5042;SDS011;2540;50.928;6.856;2023-07-16T11:35:08;3.60;;;2.43;;
5042;SDS011;2540;50.928;6.856;2023-07-16T11:37:40;5.60;;;2.70;;
5042;SDS011;2540;50.928;6.856;2023-07-16T11:40:07;4.90;;;2.97;;
5042;SDS011;2540;50.928;6.856;2023-07-16T11:42:36;10.17;;;3.00;;
5042;SDS011;2540;50.928;6.856;2023-07-16T11:45:03;5.40;;;2.60;;
5042;SDS011;2540;50.928;6.856;2023-07-16T11:47:29;4.00;;;2.57;;
5042;SDS011;2540;50.928;6.856;2023-07-16T11:49:55;4.40;;;2.67;;
5042;SDS011;2540;50.928;6.856;2023-07-16T11:52:24;6.90;;;2.80;;
5042;SDS011;2540;50.928;6.856;2023-07-16T11:54:53;4.10;;;2.73;;
5042;SDS011;2540;50.928;6.856;2023-07-16T11:57:19;5.30;;;2.87;;
5042;SDS011;2540;50.928;6.856;2023-07-16T11:59:45;4.80;;;2.80;;
5042;SDS011;2540;50.928;6.856;2023-07-16T12:02:10;3.50;;;2.10;;
5042;SDS011;2540;50.928;6.856;2023-07-16T12:04:36;7.93;;;3.00;;
5042;SDS011;2540;50.928;6.856;2023-07-16T12:07:01;5.70;;;3.17;;
5042;SDS011;2540;50.928;6.856;2023-07-16T12:09:27;5.30;;;2.87;;
5042;SDS011;2540;50.928;6.856;2023-07-16T12:11:52;8.13;;;2.40;;
5042;SDS011;2540;50.928;6.856;2023-07-16T12:14:17;9.80;;;3.37;;
5042;SDS011;2540;50.928;6.856;2023-07-16T12:16:43;5.23;;;3.20;;
5042;SDS011;2540;50.928;6.856;2023-07-16T12:19:08;4.93;;;2.77;;
5042;SDS011;2540;50.928;6.856;2023-07-16T12:21:34;5.30;;;2.77;;
5042;SDS011;2540;50.928;6.856;2023-07-16T12:23:59;8.13;;;3.13;;
5042;SDS011;2540;50.928;6.856;2023-07-16T12:26:25;6.00;;;2.60;;
5042;SDS011;2540;50.928;6.856;2023-07-16T12:28:50;3.53;;;2.57;;
5042;SDS011;2540;50.928;6.856;2023-07-16T12:31:15;9.27;;;2.73;;
5042;SDS011;2540;50.928;6.856;2023-07-16T12:33:42;4.97;;;2.60;;
5042;SDS011;2540;50.928;6.856;2023-07-16T12:36:08;5.20;;;2.83;;
5042;SDS011;2540;50.928;6.856;2023-07-16T12:38:33;5.40;;;2.77;;
5042;SDS011;2540;50.928;6.856;2023-07-16T12:40:58;5.20;;;3.03;;
5042;SDS011;2540;50.928;6.856;2023-07-16T12:43:24;6.20;;;2.93;;
5042;SDS011;2540;50.928;6.856;2023-07-16T12:45:49;5.60;;;2.90;;
5042;SDS011;2540;50.928;6.856;2023-07-16T12:48:14;7.03;;;3.20;;
5042;SDS011;2540;50.928;6.856;2023-07-16T12:50:40;6.13;;;2.60;;
5042;SDS011;2540;50.928;6.856;2023-07-16T12:53:05;5.10;;;2.47;;
5042;SDS011;2540;50.928;6.856;2023-07-16T12:55:30;6.13;;;2.67;;
5042;SDS011;2540;50.928;6.856;2023-07-16T12:57:56;5.90;;;2.80;;
5042;SDS011;2540;50.928;6.856;2023-07-16T13:00:22;5.57;;;2.97;;
5042;SDS011;2540;50.928;6.856;2023-07-16T13:02:47;5.60;;;3.00;;
5042;SDS011;2540;50.928;6.856;2023-07-16T13:05:12;9.40;;;2.80;;
5042;SDS011;2540;50.928;6.856;2023-07-16T13:07:38;20.27;;;3.13;;
5042;SDS011;2540;50.928;6.856;2023-07-16T13:10:03;9.87;;;3.33;;
5042;SDS011;2540;50.928;6.856;2023-07-16T13:12:29;8.30;;;2.87;;
5042;SDS011;2540;50.928;6.856;2023-07-16T13:14:54;4.80;;;2.90;;
5042;SDS011;2540;50.928;6.856;2023-07-16T13:17:20;6.37;;;3.00;;
5042;SDS011;2540;50.928;6.856;2023-07-16T13:19:45;4.03;;;2.60;;
5042;SDS011;2540;50.928;6.856;2023-07-16T13:22:12;6.00;;;3.20;;
5042;SDS011;2540;50.928;6.856;2023-07-16T13:24:39;5.77;;;3.23;;
5042;SDS011;2540;50.928;6.856;2023-07-16T13:27:04;11.13;;;3.27;;
5042;SDS011;2540;50.928;6.856;2023-07-16T13:29:29;6.03;;;3.33;;
5042;SDS011;2540;50.928;6.856;2023-07-16T13:31:55;7.07;;;2.70;;
5042;SDS011;2540;50.928;6.856;2023-07-16T13:34:20;6.77;;;3.17;;
5042;SDS011;2540;50.928;6.856;2023-07-16T13:36:45;9.77;;;3.50;;
5042;SDS011;2540;50.928;6.856;2023-07-16T13:39:11;7.47;;;2.93;;
5042;SDS011;2540;50.928;6.856;2023-07-16T13:41:38;6.50;;;3.13;;
5042;SDS011;2540;50.928;6.856;2023-07-16T13:44:03;6.03;;;2.70;;
5042;SDS011;2540;50.928;6.856;2023-07-16T13:46:29;5.60;;;3.17;;
5042;SDS011;2540;50.928;6.856;2023-07-16T13:48:54;9.73;;;3.10;;
5042;SDS011;2540;50.928;6.856;2023-07-16T13:51:19;4.73;;;2.67;;
5042;SDS011;2540;50.928;6.856;2023-07-16T13:53:45;9.40;;;3.30;;
5042;SDS011;2540;50.928;6.856;2023-07-16T13:56:10;3.50;;;2.37;;
5042;SDS011;2540;50.928;6.856;2023-07-16T13:58:35;9.10;;;4.07;;
5042;SDS011;2540;50.928;6.856;2023-07-16T14:01:01;3.53;;;2.97;;
5042;SDS011;2540;50.928;6.856;2023-07-16T14:03:26;9.33;;;2.70;;
5042;SDS011;2540;50.928;6.856;2023-07-16T14:05:51;5.13;;;2.97;;
5042;SDS011;2540;50.928;6.856;2023-07-16T14:08:17;8.43;;;3.03;;
5042;SDS011;2540;50.928;6.856;2023-07-16T14:10:42;6.50;;;2.50;;
5042;SDS011;2540;50.928;6.856;2023-07-16T14:13:07;6.60;;;3.20;;
5042;SDS011;2540;50.928;6.856;2023-07-16T14:15:33;9.50;;;2.90;;
5042;SDS011;2540;50.928;6.856;2023-07-16T14:17:58;6.50;;;2.50;;
5042;SDS011;2540;50.928;6.856;2023-07-16T14:20:23;6.60;;;3.40;;
5042;SDS011;2540;50.928;6.856;2023-07-16T14:22:49;6.47;;;2.80;;
5042;SDS011;2540;50.928;6.856;2023-07-16T14:25:14;5.87;;;2.80;;
5042;SDS011;2540;50.928;6.856;2023-07-16T14:27:39;5.10;;;3.03;;
5042;SDS011;2540;50.928;6.856;2023-07-16T14:30:05;8.87;;;3.03;;
5042;SDS011;2540;50.928;6.856;2023-07-16T14:32:31;6.23;;;3.23;;
5042;SDS011;2540;50.928;6.856;2023-07-16T14:34:56;7.77;;;3.00;;
5042;SDS011;2540;50.928;6.856;2023-07-16T14:37:22;7.00;;;2.53;;
5042;SDS011;2540;50.928;6.856;2023-07-16T14:39:47;5.90;;;2.70;;
5042;SDS011;2540;50.928;6.856;2023-07-16T14:42:13;5.77;;;2.80;;
5042;SDS011;2540;50.928;6.856;2023-07-16T14:44:38;8.47;;;2.97;;
5042;SDS011;2540;50.928;6.856;2023-07-16T14:47:03;3.97;;;2.73;;
5042;SDS011;2540;50.928;6.856;2023-07-16T14:49:29;8.03;;;2.17;;
5042;SDS011;2540;50.928;6.856;2023-07-16T14:51:54;8.40;;;2.80;;
5042;SDS011;2540;50.928;6.856;2023-07-16T14:54:20;5.10;;;2.50;;
5042;SDS011;2540;50.928;6.856;2023-07-16T14:56:45;6.60;;;2.90;;
5042;SDS011;2540;50.928;6.856;2023-07-16T14:59:10;4.27;;;2.20;;
5042;SDS011;2540;50.928;6.856;2023-07-16T15:01:36;5.33;;;2.90;;
5042;SDS011;2540;50.928;6.856;2023-07-16T15:04:10;5.93;;;2.97;;
5042;SDS011;2540;50.928;6.856;2023-07-16T15:06:45;7.10;;;2.77;;
5042;SDS011;2540;50.928;6.856;2023-07-16T15:09:11;2.70;;;2.37;;
5042;SDS011;2540;50.928;6.856;2023-07-16T15:11:38;10.17;;;3.00;;
5042;SDS011;2540;50.928;6.856;2023-07-16T15:14:04;6.00;;;2.70;;
5042;SDS011;2540;50.928;6.856;2023-07-16T15:16:29;4.67;;;2.53;;
5042;SDS011;2540;50.928;6.856;2023-07-16T15:18:54;6.03;;;3.07;;
5042;SDS011;2540;50.928;6.856;2023-07-16T15:21:20;4.17;;;2.67;;